• Join FlightAware (Why Join?)
  • Login
  • US Flag 
04:03PM EST


 

Airport Tracker/Info


-or-


 

Live Flight TrackerFlight Track Log ✈ RPA3143 ✈ 11-Jul-2013 ✈ KDCA - KMCO

Flight Track Log - Related Links

Times and Time Zones

All times are in EDT time to prevent confusion due to time zone crossing. See the RPA3143 flight status page for this flight to view local times or setup timezone preferences in your user account.

Time Position Orientation Groundspeed Altitude Reporting Facility
EDT Latitude Longitude Course Direction KTS MPH feet Rate Location/Type
08:04AM 38.8000 -77.0333 233° Southwest 178 205 1,600  Level Potomac TRACON
08:05AM 38.6319 -77.2848 218° Southwest  Level FlightAware Approximate
08:05AM 38.7333 -77.0333 180° South 258 297 3,400  Level Potomac TRACON
08:05AM 38.7000 -77.1000 237° Southwest 272 313 6,200 2,820 Climbing Potomac TRACON
08:06AM 38.5525 -77.3642 218° Southwest  Level FlightAware Approximate
08:07AM 38.4795 -77.4526 225° Southwest  Level FlightAware Approximate
08:07AM 38.6583 -77.2347 248° West 268 308 10,700  Level Washington Center
08:08AM 38.4059 -77.5387 201° Southwest  Level FlightAware Approximate
08:08AM 38.5967 -77.3131 225° Southwest 282 325 12,300  Level Washington Center
08:09AM 38.3369 -77.6274 233° Southwest  Level FlightAware Approximate
08:09AM 38.5331 -77.3964 226° Southwest 298 343 14,600  Level Washington Center
08:10AM 38.4628 -77.4850 225° Southwest 324 373 16,500 1,800 Climbing Washington Center
08:11AM 38.3861 -77.5836 225° Southwest 345 397 18,300 1,740 Climbing Washington Center
08:12AM 38.3197 -77.6850 230° Southwest 364 419 20,000 1,680 Climbing Washington Center
08:13AM 38.2531 -77.7917 232° Southwest 376 433 21,700 1,980 Climbing Washington Center
08:14AM 38.1867 -77.8928 230° Southwest 381 438 24,100 1,920 Climbing Washington Center
08:15AM 38.1200 -77.9908 229° Southwest 381 438 25,600 1,380 Climbing Washington Center
08:16AM 38.0533 -78.0944 231° Southwest 381 438 26,900 1,200 Climbing Washington Center
08:17AM 37.9825 -78.1894 227° Southwest 381 438 28,000 1,020 Climbing Washington Center
08:18AM 37.8953 -78.2706 216° Southwest 376 433 29,000 960 Climbing Washington Center
08:19AM 37.8056 -78.3569 217° Southwest 397 457 30,000 840 Climbing Washington Center
08:20AM 37.7225 -78.4325 216° Southwest 407 468 30,800 900 Climbing Washington Center
08:21AM 37.6328 -78.5183 217° Southwest 413 475 31,800 960 Climbing Washington Center
08:22AM 37.5411 -78.6039 217° Southwest 413 475 32,700 900 Climbing Washington Center
08:23AM 37.4492 -78.6867 216° Southwest 413 475 33,700 600 Climbing Washington Center
08:24AM 37.3508 -78.7819 218° Southwest 413 475 34,000 120 Climbing Washington Center
08:25AM 37.2589 -78.8642 215° Southwest 413 475 34,000  Level Washington Center
08:26AM 37.1667 -78.9514 217° Southwest 418 481 34,000  Level Washington Center
08:27AM 37.0747 -79.0358 216° Southwest 418 481 34,000  Level Washington Center
08:28AM 36.9825 -79.1203 216° Southwest 418 481 34,000  Level Washington Center
08:29AM 36.8989 -79.1969 216° Southwest 418 481 34,000  Level Washington Center
08:30AM 36.8064 -79.2833 217° Southwest 418 481 34,000  Level Washington Center
08:31AM 36.7142 -79.3697 217° Southwest 418 481 34,000  Level Washington Center
08:32AM 36.6239 -79.4506 216° Southwest 418 481 34,000  Level Washington Center
08:34AM 36.4214 -79.6319 216° Southwest 416 479 34,000  Level Atlanta Center
08:35AM 36.3325 -79.7167 218° Southwest 421 484 34,000  Level Atlanta Center
08:36AM 36.2475 -79.7908 215° Southwest 421 484 34,000  Level Atlanta Center
08:37AM 36.1522 -79.8731 215° Southwest 421 484 34,000  Level Atlanta Center
08:38AM 36.0592 -79.9575 216° Southwest 421 484 34,000  Level Atlanta Center
08:39AM 35.9425 -80.0247 205° Southwest 415 478 34,000  Level Atlanta Center
08:40AM 35.8358 -80.0786 202° Southwest 422 486 34,000  Level Atlanta Center
08:41AM 35.7272 -80.1353 203° Southwest 422 486 34,000  Level Atlanta Center
08:42AM 35.6286 -80.1858 203° Southwest 434 499 34,000  Level Atlanta Center
08:43AM 35.5131 -80.2269 196° South 429 494 34,000  Level Atlanta Center
08:44AM 35.3972 -80.2631 194° South 424 488 34,000  Level Atlanta Center
08:45AM 35.2814 -80.2964 193° South 434 499 34,000  Level Atlanta Center
08:46AM 35.1658 -80.3319 194° South 428 493 34,000  Level Atlanta Center
08:48AM 34.9050 -80.4094 194° South 441 507 34,000  Level Jacksonville Center
08:49AM 34.7828 -80.4458 194° South 428 493 34,000  Level Jacksonville Center
08:50AM 34.6686 -80.4819 195° South 428 493 34,000  Level Jacksonville Center
08:51AM 34.5506 -80.5156 193° South 433 498 34,000  Level Jacksonville Center
08:52AM 34.4342 -80.5489 193° South 433 498 34,000  Level Jacksonville Center
08:53AM 34.3181 -80.5847 194° South 433 498 34,000  Level Jacksonville Center
08:54AM 34.1997 -80.6178 193° South 433 498 34,000  Level Jacksonville Center
08:55AM 34.0794 -80.6511 193° South 438 504 34,000  Level Jacksonville Center
08:56AM 33.9611 -80.6892 195° South 438 504 34,000  Level Jacksonville Center
08:57AM 33.8428 -80.7222 193° South 443 510 34,000  Level Jacksonville Center
08:58AM 33.7222 -80.7575 194° South 448 516 34,000  Level Jacksonville Center
08:59AM 33.6019 -80.7931 194° South 448 516 34,000  Level Jacksonville Center
09:00AM 33.4836 -80.8281 194° South 448 516 34,000  Level Jacksonville Center
09:01AM 33.3631 -80.8608 193° South 448 516 34,000  Level Jacksonville Center
09:02AM 33.2444 -80.8933 193° South 448 516 34,000  Level Jacksonville Center
09:03AM 33.1261 -80.9281 194° South 448 516 34,000  Level Jacksonville Center
09:04AM 33.0161 -80.9578 193° South 448 516 34,000  Level Jacksonville Center
09:05AM 32.8975 -80.9925 194° South 448 516 34,000  Level Jacksonville Center
09:06AM 32.7792 -81.0272 194° South 448 516 34,000  Level Jacksonville Center
09:07AM 32.6500 -81.0569 191° South 443 510 34,000  Level Jacksonville Center
09:08AM 32.5375 -81.0714 186° South 443 510 34,000  Level Jacksonville Center
09:09AM 32.4122 -81.0739 181° South 443 510 34,000  Level Jacksonville Center
09:10AM 32.2872 -81.0742 180° South 443 510 34,000  Level Jacksonville Center
09:11AM 32.1661 -81.0764 181° South 443 510 34,000  Level Jacksonville Center
09:12AM 32.0428 -81.0789 181° South 443 510 34,000  Level Jacksonville Center
09:13AM 31.9178 -81.0789 180° South 438 504 34,000  Level Jacksonville Center
09:14AM 31.7819 -81.0839 182° South 445 512 34,000  Level Jacksonville Center
09:15AM 31.6547 -81.0889 182° South 450 518 34,000  Level Jacksonville Center
09:16AM 31.5419 -81.0886 180° South 455 524 34,000  Level Jacksonville Center
09:17AM 31.4000 -81.0914 181° South 455 524 34,000  Level Jacksonville Center
09:18AM 31.2706 -81.0914 180° South 460 529 34,000  Level Jacksonville Center
09:19AM 31.1411 -81.0917 180° South 460 529 34,000  Level Jacksonville Center
09:20AM 31.0158 -81.0939 181° South 455 524 34,000  Level Jacksonville Center
09:21AM 30.8886 -81.0964 181° South 455 524 34,000  Level Jacksonville Center
09:22AM 30.7592 -81.0939 179° South 455 524 34,000  Level Jacksonville Center
09:23AM 30.6317 -81.0989 182° South 455 524 34,000  Level Jacksonville Center
09:24AM 30.5044 -81.0989 180° South 455 524 34,000  Level Jacksonville Center
09:25AM 30.3772 -81.1011 181° South 460 529 34,000  Level Jacksonville Center
09:26AM 30.2478 -81.1011 180° South 460 529 34,000 -600 Level Jacksonville Center
09:27AM 30.1203 -81.1036 181° South 460 529 32,900 -1,800 Descending Jacksonville Center
09:28AM 29.9889 -81.1036 180° South 460 529 30,400 -2,520 Descending Jacksonville Center
09:29AM 29.8594 -81.1061 181° South 460 529 27,900 -2,460 Descending Jacksonville Center
09:30AM 29.7364 -81.1106 182° South 455 524 25,500 -2,400 Descending Jacksonville Center
09:31AM 29.6153 -81.1128 181° South 443 510 23,200 -2,280 Descending Jacksonville Center
09:32AM 29.5006 -81.1150 181° South 431 496 21,000 -2,100 Descending Jacksonville Center
09:33AM 29.3900 -81.1169 181° South 417 480 19,100 -1,980 Descending Jacksonville Center
09:34AM 29.2875 -81.1139 179° South 397 457 17,100 -1,980 Descending Jacksonville Center
09:35AM 29.1872 -81.1086 177° South 378 435 15,200 -1,920 Descending Jacksonville Center
09:36AM 29.0911 -81.0986 175° South 360 414 13,300 -1,620 Descending Jacksonville Center
09:37AM 29.0014 -81.0906 176° South 341 392 12,000 -660 Descending Jacksonville Center
09:38AM 28.9197 -81.0828 175° South 318 366 12,000 -600 Level Jacksonville Center
09:39AM 28.8403 -81.0794 178° South 308 354 10,900 -1,320 Descending Jacksonville Center
09:40AM 28.7589 -81.0714 175° South 303 349 9,400 -1,140 Descending Jacksonville Center
09:41AM 28.7286 -81.1358 242° Southwest 218 251 8,700 -1,200 Descending Jacksonville Center
09:42AM 28.7253 -81.2164 267° West 206 237 7,100 -1,380 Descending Jacksonville Center
09:43AM 28.6908 -81.2786 238° Southwest 219 252 6,000 -1,200 Descending Jacksonville Center
09:44AM 28.6408 -81.3031 203° Southwest 198 228 4,700 -1,440 Descending Jacksonville Center
09:46AM 28.5833 -81.3000 177° South 166 191 2,800 -1,200 Descending Orlando TRACON
09:47AM 28.5333 -81.3000 180° South 168 193 2,000 -840 Descending Orlando TRACON